Cruz Bay, VI

3:03 AM AST on October 26, 2014 (GMT -0400)
Luis Munoz Marin International | Change Station
CLOSE
Current Station
Airport
Location: San Juan,
Elevation: 7 ft
Nearby Weather Stations

Elev 7 ft 18.43 °N, 66.01 °W | Updated 7 minutes ago

Partly Cloudy
Partly Cloudy
81 °F
Feels Like 87 °F
N
0
Wind Variable Wind from North

Today
High -- | Low -- °F
--% Chance of Precip.
Yesterday
High -- | Low -- °F
Precip. -- in
6:16 AM 5:49 PM
Waxing Crescent, 6% visible
Pressure 29.85 in
Visibility 10.0 miles
Clouds Few 2400 ft
Heat Index 87 °F
Dew Point 76 °F
Humidity 85%
Rainfall 0.00 in
Snow Depth Not available.
UV 0 out of 12
Pollen Not available.
Air Quality Not available.
Flu Activity Sporadic
METAR TJSJ 260656Z 00000KT 10SM FEW024 27/24 A2985 RMK AO2 SLP107 T02720244

More Conditions Fewer Conditions

Pressure 29.85 in
Visibility 10.0 miles
Clouds Few 2400 ft
Heat Index 87 °F
Dew Point 76 °F
Humidity 85%
Rainfall 0.00 in
Snow Depth Not available.
UV 0 out of 12
Pollen Not available.
Air Quality Not available.
Flu Activity Sporadic
METAR TJSJ 260656Z 00000KT 10SM FEW024 27/24 A2985 RMK AO2 SLP107 T02720244

More Conditions Fewer Conditions

10-Day Weather Forecast

Almanac

Astronomy

Oct. 26, 2014 Rise Set
Actual Time 6:16 AM AST 5:49 PM AST
Civil Twilight 5:54 AM AST 6:11 PM AST
Nautical Twilight 5:28 AM AST 6:37 PM AST
Astronomical Twilight 5:02 AM AST 7:03 PM AST
Moon 8:36 AM AST 8:12 PM AST
Length of Visible Light 12h 17m
Length of Day
11h 33m
Tomorrow will be 0m 55s shorter.
Waxing Crescent, 6% of the Moon is Illuminated
Today
Waxing Crescent
Oct 30
First Quarter
Nov 6
Full
Nov 14
Last Quarter
Nov 22
New

Community

WunderPhotos

Upload Photos

1,765,115 photos uploaded!

Nearby

Snow Depth

Station Depth Elevation
No new snow has been reported.

Earthquake Activity

City Distance Mag. Time & Date
No recent earthquake activity has been reported nearby.
Minimum magnitude displayed is 2.5.

Coastal Water Temperatures

Place Temperature
Yabucoa Harbor, PR 84.0 °F
Esperanza, PR 84.9 °F
Charlotte Amalie, VI 86.0 °F

Nearby Weather Stations